sensor_id;sensor_type;location;lat;lon;timestamp;P1;durP1;ratioP1;P2;durP2;ratioP2
30307;SDS011;17114;52.314;8.910;2023-04-10T00:00:19;57.80;;;30.23;;
30307;SDS011;17114;52.314;8.910;2023-04-10T00:02:47;53.22;;;28.50;;
30307;SDS011;17114;52.314;8.910;2023-04-10T00:05:14;56.40;;;29.27;;
30307;SDS011;17114;52.314;8.910;2023-04-10T00:07:41;55.35;;;28.70;;
30307;SDS011;17114;52.314;8.910;2023-04-10T00:10:08;55.15;;;29.58;;
30307;SDS011;17114;52.314;8.910;2023-04-10T00:12:35;56.60;;;29.92;;
30307;SDS011;17114;52.314;8.910;2023-04-10T00:15:03;63.60;;;32.42;;
30307;SDS011;17114;52.314;8.910;2023-04-10T00:17:30;56.85;;;31.52;;
30307;SDS011;17114;52.314;8.910;2023-04-10T00:19:58;59.95;;;31.45;;
30307;SDS011;17114;52.314;8.910;2023-04-10T00:22:25;57.85;;;32.25;;
30307;SDS011;17114;52.314;8.910;2023-04-10T00:24:56;60.22;;;32.72;;
30307;SDS011;17114;52.314;8.910;2023-04-10T00:27:27;59.85;;;32.33;;
30307;SDS011;17114;52.314;8.910;2023-04-10T00:29:55;57.83;;;31.60;;
30307;SDS011;17114;52.314;8.910;2023-04-10T00:32:29;41.67;;;21.87;;
30307;SDS011;17114;52.314;8.910;2023-04-10T00:34:56;59.05;;;30.83;;
30307;SDS011;17114;52.314;8.910;2023-04-10T00:37:45;60.35;;;31.67;;
30307;SDS011;17114;52.314;8.910;2023-04-10T00:40:33;57.70;;;30.30;;
30307;SDS011;17114;52.314;8.910;2023-04-10T00:46:55;57.42;;;29.70;;
30307;SDS011;17114;52.314;8.910;2023-04-10T00:56:03;58.67;;;31.17;;
30307;SDS011;17114;52.314;8.910;2023-04-10T00:58:39;58.35;;;30.48;;
30307;SDS011;17114;52.314;8.910;2023-04-10T01:01:08;56.78;;;30.17;;
30307;SDS011;17114;52.314;8.910;2023-04-10T01:03:35;57.42;;;31.25;;
30307;SDS011;17114;52.314;8.910;2023-04-10T01:06:06;57.40;;;30.95;;
30307;SDS011;17114;52.314;8.910;2023-04-10T01:08:47;61.28;;;32.03;;
30307;SDS011;17114;52.314;8.910;2023-04-10T01:11:19;60.13;;;32.22;;
30307;SDS011;17114;52.314;8.910;2023-04-10T01:14:20;57.67;;;31.33;;
30307;SDS011;17114;52.314;8.910;2023-04-10T01:17:00;58.30;;;32.42;;
30307;SDS011;17114;52.314;8.910;2023-04-10T01:22:14;57.53;;;31.55;;
30307;SDS011;17114;52.314;8.910;2023-04-10T01:24:57;57.47;;;31.98;;
30307;SDS011;17114;52.314;8.910;2023-04-10T01:27:35;60.92;;;30.45;;
30307;SDS011;17114;52.314;8.910;2023-04-10T01:30:13;57.22;;;31.15;;
30307;SDS011;17114;52.314;8.910;2023-04-10T01:32:45;58.55;;;31.13;;
30307;SDS011;17114;52.314;8.910;2023-04-10T01:35:14;58.63;;;30.58;;
30307;SDS011;17114;52.314;8.910;2023-04-10T01:37:42;58.05;;;30.85;;
30307;SDS011;17114;52.314;8.910;2023-04-10T01:40:14;59.45;;;31.65;;
30307;SDS011;17114;52.314;8.910;2023-04-10T01:42:43;58.08;;;32.45;;
30307;SDS011;17114;52.314;8.910;2023-04-10T01:45:17;62.60;;;31.90;;
30307;SDS011;17114;52.314;8.910;2023-04-10T01:47:46;54.40;;;29.80;;
30307;SDS011;17114;52.314;8.910;2023-04-10T01:50:14;61.65;;;32.67;;
30307;SDS011;17114;52.314;8.910;2023-04-10T01:52:41;58.60;;;32.65;;
30307;SDS011;17114;52.314;8.910;2023-04-10T01:55:09;59.90;;;32.88;;
30307;SDS011;17114;52.314;8.910;2023-04-10T01:57:36;56.08;;;30.23;;
30307;SDS011;17114;52.314;8.910;2023-04-10T02:00:03;58.05;;;31.63;;
30307;SDS011;17114;52.314;8.910;2023-04-10T02:02:31;58.30;;;30.20;;
30307;SDS011;17114;52.314;8.910;2023-04-10T02:04:59;59.55;;;31.70;;
30307;SDS011;17114;52.314;8.910;2023-04-10T02:07:41;59.97;;;31.52;;
30307;SDS011;17114;52.314;8.910;2023-04-10T02:10:27;61.63;;;31.50;;
30307;SDS011;17114;52.314;8.910;2023-04-10T02:13:06;62.30;;;32.08;;
30307;SDS011;17114;52.314;8.910;2023-04-10T02:15:41;60.92;;;33.00;;
30307;SDS011;17114;52.314;8.910;2023-04-10T02:18:14;62.15;;;32.92;;
30307;SDS011;17114;52.314;8.910;2023-04-10T02:21:21;60.38;;;31.45;;
30307;SDS011;17114;52.314;8.910;2023-04-10T02:23:52;56.03;;;30.88;;
30307;SDS011;17114;52.314;8.910;2023-04-10T02:26:44;60.08;;;31.70;;
30307;SDS011;17114;52.314;8.910;2023-04-10T02:29:23;61.35;;;31.23;;
30307;SDS011;17114;52.314;8.910;2023-04-10T02:31:51;60.00;;;32.47;;
30307;SDS011;17114;52.314;8.910;2023-04-10T02:34:18;62.03;;;31.30;;
30307;SDS011;17114;52.314;8.910;2023-04-10T02:36:45;60.92;;;31.90;;
30307;SDS011;17114;52.314;8.910;2023-04-10T02:39:11;58.22;;;30.95;;
30307;SDS011;17114;52.314;8.910;2023-04-10T02:41:38;59.40;;;31.67;;
30307;SDS011;17114;52.314;8.910;2023-04-10T02:44:05;56.03;;;31.15;;
30307;SDS011;17114;52.314;8.910;2023-04-10T02:46:32;56.92;;;30.42;;
30307;SDS011;17114;52.314;8.910;2023-04-10T02:48:59;56.08;;;29.67;;
30307;SDS011;17114;52.314;8.910;2023-04-10T02:51:26;53.97;;;29.08;;
30307;SDS011;17114;52.314;8.910;2023-04-10T02:53:53;55.45;;;30.17;;
30307;SDS011;17114;52.314;8.910;2023-04-10T02:56:21;52.47;;;28.48;;
30307;SDS011;17114;52.314;8.910;2023-04-10T02:58:47;58.00;;;30.05;;
30307;SDS011;17114;52.314;8.910;2023-04-10T03:01:14;54.47;;;30.20;;
30307;SDS011;17114;52.314;8.910;2023-04-10T03:03:41;57.50;;;30.00;;
30307;SDS011;17114;52.314;8.910;2023-04-10T03:06:08;60.53;;;30.95;;
30307;SDS011;17114;52.314;8.910;2023-04-10T03:08:36;59.28;;;29.95;;
30307;SDS011;17114;52.314;8.910;2023-04-10T03:11:03;60.25;;;31.02;;
30307;SDS011;17114;52.314;8.910;2023-04-10T03:13:30;56.13;;;31.25;;
30307;SDS011;17114;52.314;8.910;2023-04-10T03:15:57;55.55;;;29.90;;
30307;SDS011;17114;52.314;8.910;2023-04-10T03:18:24;56.53;;;30.23;;
30307;SDS011;17114;52.314;8.910;2023-04-10T03:20:51;52.75;;;28.98;;
30307;SDS011;17114;52.314;8.910;2023-04-10T03:23:17;57.83;;;30.45;;
30307;SDS011;17114;52.314;8.910;2023-04-10T03:25:48;54.20;;;28.55;;
30307;SDS011;17114;52.314;8.910;2023-04-10T03:28:19;51.72;;;27.73;;
30307;SDS011;17114;52.314;8.910;2023-04-10T03:30:46;50.72;;;28.35;;
30307;SDS011;17114;52.314;8.910;2023-04-10T03:33:15;53.85;;;30.10;;
30307;SDS011;17114;52.314;8.910;2023-04-10T03:35:44;49.60;;;27.35;;
30307;SDS011;17114;52.314;8.910;2023-04-10T03:38:11;50.33;;;26.38;;
30307;SDS011;17114;52.314;8.910;2023-04-10T03:40:38;50.80;;;27.10;;
30307;SDS011;17114;52.314;8.910;2023-04-10T03:43:05;52.47;;;28.27;;
30307;SDS011;17114;52.314;8.910;2023-04-10T03:45:33;50.53;;;27.90;;
30307;SDS011;17114;52.314;8.910;2023-04-10T03:47:59;53.42;;;27.02;;
30307;SDS011;17114;52.314;8.910;2023-04-10T03:50:27;50.85;;;27.60;;
30307;SDS011;17114;52.314;8.910;2023-04-10T03:52:54;50.83;;;27.55;;
30307;SDS011;17114;52.314;8.910;2023-04-10T03:55:21;48.85;;;28.13;;
30307;SDS011;17114;52.314;8.910;2023-04-10T03:57:48;51.45;;;27.98;;
30307;SDS011;17114;52.314;8.910;2023-04-10T04:00:16;54.17;;;27.08;;
30307;SDS011;17114;52.314;8.910;2023-04-10T04:02:43;49.20;;;26.23;;
30307;SDS011;17114;52.314;8.910;2023-04-10T04:05:10;49.42;;;25.67;;
30307;SDS011;17114;52.314;8.910;2023-04-10T04:07:41;51.13;;;25.70;;
30307;SDS011;17114;52.314;8.910;2023-04-10T04:10:08;45.88;;;25.70;;
30307;SDS011;17114;52.314;8.910;2023-04-10T04:12:38;45.60;;;24.40;;
30307;SDS011;17114;52.314;8.910;2023-04-10T04:15:06;46.58;;;25.13;;
30307;SDS011;17114;52.314;8.910;2023-04-10T04:17:33;42.50;;;23.35;;
30307;SDS011;17114;52.314;8.910;2023-04-10T04:20:00;43.72;;;24.15;;
30307;SDS011;17114;52.314;8.910;2023-04-10T04:22:27;38.15;;;22.20;;
30307;SDS011;17114;52.314;8.910;2023-04-10T04:24:54;40.45;;;22.65;;
30307;SDS011;17114;52.314;8.910;2023-04-10T04:27:23;42.60;;;23.55;;
30307;SDS011;17114;52.314;8.910;2023-04-10T04:29:50;42.38;;;22.45;;
30307;SDS011;17114;52.314;8.910;2023-04-10T04:32:17;41.38;;;23.35;;
30307;SDS011;17114;52.314;8.910;2023-04-10T04:34:44;39.75;;;22.13;;
30307;SDS011;17114;52.314;8.910;2023-04-10T04:37:11;40.50;;;23.13;;
30307;SDS011;17114;52.314;8.910;2023-04-10T04:39:38;39.33;;;22.65;;
30307;SDS011;17114;52.314;8.910;2023-04-10T04:42:05;43.83;;;23.33;;
30307;SDS011;17114;52.314;8.910;2023-04-10T04:44:33;39.95;;;22.90;;
30307;SDS011;17114;52.314;8.910;2023-04-10T04:47:01;38.40;;;22.40;;
30307;SDS011;17114;52.314;8.910;2023-04-10T04:49:32;39.40;;;22.67;;
30307;SDS011;17114;52.314;8.910;2023-04-10T04:52:02;40.28;;;22.77;;
30307;SDS011;17114;52.314;8.910;2023-04-10T04:54:29;36.95;;;21.85;;
30307;SDS011;17114;52.314;8.910;2023-04-10T04:56:56;38.28;;;22.20;;
30307;SDS011;17114;52.314;8.910;2023-04-10T04:59:23;37.42;;;21.77;;
30307;SDS011;17114;52.314;8.910;2023-04-10T05:01:50;36.42;;;21.48;;
30307;SDS011;17114;52.314;8.910;2023-04-10T05:04:17;40.53;;;22.52;;
30307;SDS011;17114;52.314;8.910;2023-04-10T05:06:45;37.38;;;22.10;;
30307;SDS011;17114;52.314;8.910;2023-04-10T05:09:12;38.50;;;21.85;;
30307;SDS011;17114;52.314;8.910;2023-04-10T05:11:39;36.75;;;21.55;;
30307;SDS011;17114;52.314;8.910;2023-04-10T05:14:06;37.42;;;21.48;;
30307;SDS011;17114;52.314;8.910;2023-04-10T05:16:33;35.60;;;21.63;;
30307;SDS011;17114;52.314;8.910;2023-04-10T05:19:01;36.65;;;21.08;;
30307;SDS011;17114;52.314;8.910;2023-04-10T05:21:28;37.60;;;21.38;;
30307;SDS011;17114;52.314;8.910;2023-04-10T05:23:54;34.58;;;20.83;;
30307;SDS011;17114;52.314;8.910;2023-04-10T05:26:22;34.03;;;20.92;;
30307;SDS011;17114;52.314;8.910;2023-04-10T05:28:48;34.45;;;19.88;;
30307;SDS011;17114;52.314;8.910;2023-04-10T05:31:15;37.15;;;21.50;;
30307;SDS011;17114;52.314;8.910;2023-04-10T05:33:42;35.20;;;21.45;;
30307;SDS011;17114;52.314;8.910;2023-04-10T05:36:09;35.13;;;21.00;;
30307;SDS011;17114;52.314;8.910;2023-04-10T05:38:38;41.50;;;22.35;;
30307;SDS011;17114;52.314;8.910;2023-04-10T05:41:05;36.25;;;21.45;;
30307;SDS011;17114;52.314;8.910;2023-04-10T05:43:58;34.15;;;20.45;;
30307;SDS011;17114;52.314;8.910;2023-04-10T05:46:25;33.63;;;20.08;;
30307;SDS011;17114;52.314;8.910;2023-04-10T05:48:53;30.10;;;19.00;;
30307;SDS011;17114;52.314;8.910;2023-04-10T05:51:38;32.20;;;19.30;;
30307;SDS011;17114;52.314;8.910;2023-04-10T05:54:20;34.67;;;19.20;;
30307;SDS011;17114;52.314;8.910;2023-04-10T05:56:56;34.90;;;19.55;;
30307;SDS011;17114;52.314;8.910;2023-04-10T05:59:23;30.35;;;19.02;;
30307;SDS011;17114;52.314;8.910;2023-04-10T06:01:50;32.20;;;19.83;;
30307;SDS011;17114;52.314;8.910;2023-04-10T06:04:23;30.88;;;19.70;;
30307;SDS011;17114;52.314;8.910;2023-04-10T06:06:58;31.20;;;19.23;;
30307;SDS011;17114;52.314;8.910;2023-04-10T06:09:29;28.20;;;19.00;;
30307;SDS011;17114;52.314;8.910;2023-04-10T06:11:56;29.83;;;18.60;;
30307;SDS011;17114;52.314;8.910;2023-04-10T06:14:29;27.55;;;17.25;;
30307;SDS011;17114;52.314;8.910;2023-04-10T06:16:58;26.38;;;16.65;;
30307;SDS011;17114;52.314;8.910;2023-04-10T06:19:25;26.05;;;16.02;;
30307;SDS011;17114;52.314;8.910;2023-04-10T06:22:08;26.10;;;16.63;;
30307;SDS011;17114;52.314;8.910;2023-04-10T06:24:43;25.58;;;15.85;;
30307;SDS011;17114;52.314;8.910;2023-04-10T06:27:25;24.40;;;16.60;;
30307;SDS011;17114;52.314;8.910;2023-04-10T06:30:08;22.65;;;15.85;;
30307;SDS011;17114;52.314;8.910;2023-04-10T06:32:35;22.38;;;15.80;;
30307;SDS011;17114;52.314;8.910;2023-04-10T06:35:02;21.08;;;14.82;;
30307;SDS011;17114;52.314;8.910;2023-04-10T06:37:29;20.98;;;14.52;;
30307;SDS011;17114;52.314;8.910;2023-04-10T06:42:45;19.73;;;14.52;;
30307;SDS011;17114;52.314;8.910;2023-04-10T06:45:12;22.00;;;13.95;;
30307;SDS011;17114;52.314;8.910;2023-04-10T06:47:39;21.90;;;13.63;;
30307;SDS011;17114;52.314;8.910;2023-04-10T06:50:06;19.80;;;14.00;;
30307;SDS011;17114;52.314;8.910;2023-04-10T06:52:33;21.50;;;14.30;;
30307;SDS011;17114;52.314;8.910;2023-04-10T06:55:00;18.15;;;12.30;;
30307;SDS011;17114;52.314;8.910;2023-04-10T06:57:27;18.90;;;12.80;;
30307;SDS011;17114;52.314;8.910;2023-04-10T06:59:54;18.27;;;13.02;;
30307;SDS011;17114;52.314;8.910;2023-04-10T07:02:21;19.05;;;13.40;;
30307;SDS011;17114;52.314;8.910;2023-04-10T07:04:48;18.95;;;13.65;;
30307;SDS011;17114;52.314;8.910;2023-04-10T07:07:15;18.48;;;13.25;;
30307;SDS011;17114;52.314;8.910;2023-04-10T07:09:44;19.23;;;13.25;;
30307;SDS011;17114;52.314;8.910;2023-04-10T07:12:11;18.38;;;12.73;;
30307;SDS011;17114;52.314;8.910;2023-04-10T07:14:38;19.67;;;13.65;;
30307;SDS011;17114;52.314;8.910;2023-04-10T07:17:05;18.38;;;13.48;;
30307;SDS011;17114;52.314;8.910;2023-04-10T07:19:32;17.80;;;13.20;;
30307;SDS011;17114;52.314;8.910;2023-04-10T07:21:59;18.83;;;13.30;;
30307;SDS011;17114;52.314;8.910;2023-04-10T07:24:26;19.90;;;13.05;;
30307;SDS011;17114;52.314;8.910;2023-04-10T07:26:53;20.00;;;13.40;;
30307;SDS011;17114;52.314;8.910;2023-04-10T07:29:22;17.80;;;12.80;;
30307;SDS011;17114;52.314;8.910;2023-04-10T07:31:49;18.77;;;13.20;;
30307;SDS011;17114;52.314;8.910;2023-04-10T07:34:18;17.73;;;13.20;;
30307;SDS011;17114;52.314;8.910;2023-04-10T07:36:45;17.95;;;13.32;;
30307;SDS011;17114;52.314;8.910;2023-04-10T07:39:12;17.38;;;12.98;;
30307;SDS011;17114;52.314;8.910;2023-04-10T07:41:39;19.15;;;13.98;;
30307;SDS011;17114;52.314;8.910;2023-04-10T07:44:08;17.17;;;12.98;;
30307;SDS011;17114;52.314;8.910;2023-04-10T07:46:37;20.58;;;13.82;;
30307;SDS011;17114;52.314;8.910;2023-04-10T07:49:07;18.95;;;12.93;;
30307;SDS011;17114;52.314;8.910;2023-04-10T07:51:34;16.90;;;12.55;;
30307;SDS011;17114;52.314;8.910;2023-04-10T07:54:02;19.60;;;14.27;;
30307;SDS011;17114;52.314;8.910;2023-04-10T07:56:29;18.42;;;13.18;;
30307;SDS011;17114;52.314;8.910;2023-04-10T07:58:58;17.08;;;12.90;;
30307;SDS011;17114;52.314;8.910;2023-04-10T08:01:28;18.08;;;13.10;;
30307;SDS011;17114;52.314;8.910;2023-04-10T08:03:58;17.95;;;13.13;;
30307;SDS011;17114;52.314;8.910;2023-04-10T08:06:29;18.77;;;13.55;;
30307;SDS011;17114;52.314;8.910;2023-04-10T08:08:57;16.77;;;12.20;;
30307;SDS011;17114;52.314;8.910;2023-04-10T08:11:28;17.95;;;13.38;;
30307;SDS011;17114;52.314;8.910;2023-04-10T08:14:03;18.08;;;12.73;;
30307;SDS011;17114;52.314;8.910;2023-04-10T08:16:32;17.83;;;12.90;;
30307;SDS011;17114;52.314;8.910;2023-04-10T08:19:00;18.63;;;12.93;;
30307;SDS011;17114;52.314;8.910;2023-04-10T08:21:28;16.45;;;12.30;;
30307;SDS011;17114;52.314;8.910;2023-04-10T08:23:58;16.55;;;12.07;;
30307;SDS011;17114;52.314;8.910;2023-04-10T08:26:28;16.60;;;12.35;;
30307;SDS011;17114;52.314;8.910;2023-04-10T08:28:56;19.55;;;13.45;;
30307;SDS011;17114;52.314;8.910;2023-04-10T08:31:25;16.63;;;12.65;;
30307;SDS011;17114;52.314;8.910;2023-04-10T08:33:53;16.70;;;12.50;;
30307;SDS011;17114;52.314;8.910;2023-04-10T08:36:21;14.77;;;11.32;;
30307;SDS011;17114;52.314;8.910;2023-04-10T08:38:48;15.90;;;12.23;;
30307;SDS011;17114;52.314;8.910;2023-04-10T08:41:16;14.70;;;10.57;;
30307;SDS011;17114;52.314;8.910;2023-04-10T08:43:44;14.55;;;10.90;;
30307;SDS011;17114;52.314;8.910;2023-04-10T08:46:17;14.10;;;11.23;;
30307;SDS011;17114;52.314;8.910;2023-04-10T08:49:00;14.68;;;10.65;;
30307;SDS011;17114;52.314;8.910;2023-04-10T08:51:36;13.40;;;10.43;;
30307;SDS011;17114;52.314;8.910;2023-04-10T08:54:09;15.07;;;9.63;;
30307;SDS011;17114;52.314;8.910;2023-04-10T08:56:40;13.30;;;10.18;;
30307;SDS011;17114;52.314;8.910;2023-04-10T08:59:11;14.70;;;10.35;;
30307;SDS011;17114;52.314;8.910;2023-04-10T09:01:38;13.95;;;10.50;;
30307;SDS011;17114;52.314;8.910;2023-04-10T09:04:06;12.88;;;10.10;;
30307;SDS011;17114;52.314;8.910;2023-04-10T09:06:33;15.35;;;10.57;;
30307;SDS011;17114;52.314;8.910;2023-04-10T09:09:00;13.60;;;10.45;;
30307;SDS011;17114;52.314;8.910;2023-04-10T09:14:21;14.50;;;11.10;;
30307;SDS011;17114;52.314;8.910;2023-04-10T09:16:52;14.48;;;10.40;;
30307;SDS011;17114;52.314;8.910;2023-04-10T09:19:37;15.27;;;10.43;;
30307;SDS011;17114;52.314;8.910;2023-04-10T09:22:05;13.55;;;10.18;;
30307;SDS011;17114;52.314;8.910;2023-04-10T09:24:36;12.55;;;10.40;;
30307;SDS011;17114;52.314;8.910;2023-04-10T09:29:42;13.68;;;10.27;;
30307;SDS011;17114;52.314;8.910;2023-04-10T09:35:14;18.65;;;11.13;;
30307;SDS011;17114;52.314;8.910;2023-04-10T09:37:45;14.75;;;10.65;;
30307;SDS011;17114;52.314;8.910;2023-04-10T09:40:22;14.45;;;10.60;;
30307;SDS011;17114;52.314;8.910;2023-04-10T09:42:50;13.88;;;10.88;;
30307;SDS011;17114;52.314;8.910;2023-04-10T09:45:18;15.30;;;10.15;;
30307;SDS011;17114;52.314;8.910;2023-04-10T09:48:03;18.25;;;11.00;;
30307;SDS011;17114;52.314;8.910;2023-04-10T09:50:38;15.05;;;10.77;;
30307;SDS011;17114;52.314;8.910;2023-04-10T09:53:07;12.25;;;10.20;;
30307;SDS011;17114;52.314;8.910;2023-04-10T09:55:42;14.75;;;10.82;;
30307;SDS011;17114;52.314;8.910;2023-04-10T09:58:09;15.48;;;11.25;;
30307;SDS011;17114;52.314;8.910;2023-04-10T10:00:40;14.55;;;10.80;;
30307;SDS011;17114;52.314;8.910;2023-04-10T10:03:09;12.77;;;9.88;;
30307;SDS011;17114;52.314;8.910;2023-04-10T10:05:39;13.35;;;10.10;;
30307;SDS011;17114;52.314;8.910;2023-04-10T10:08:11;12.60;;;10.23;;
30307;SDS011;17114;52.314;8.910;2023-04-10T10:10:46;11.77;;;9.38;;
30307;SDS011;17114;52.314;8.910;2023-04-10T10:13:23;14.20;;;10.95;;
30307;SDS011;17114;52.314;8.910;2023-04-10T10:16:14;12.82;;;10.05;;
30307;SDS011;17114;52.314;8.910;2023-04-10T10:21:37;15.77;;;10.45;;
30307;SDS011;17114;52.314;8.910;2023-04-10T10:24:06;14.70;;;10.50;;
30307;SDS011;17114;52.314;8.910;2023-04-10T10:26:34;12.98;;;10.38;;
30307;SDS011;17114;52.314;8.910;2023-04-10T10:29:04;13.35;;;10.18;;
30307;SDS011;17114;52.314;8.910;2023-04-10T10:31:36;13.40;;;10.70;;
30307;SDS011;17114;52.314;8.910;2023-04-10T10:34:03;14.40;;;10.38;;
30307;SDS011;17114;52.314;8.910;2023-04-10T10:36:33;13.18;;;10.45;;
30307;SDS011;17114;52.314;8.910;2023-04-10T10:42:01;11.90;;;9.32;;
30307;SDS011;17114;52.314;8.910;2023-04-10T10:44:48;11.15;;;8.32;;
30307;SDS011;17114;52.314;8.910;2023-04-10T10:47:28;9.32;;;7.95;;
30307;SDS011;17114;52.314;8.910;2023-04-10T10:49:58;10.52;;;8.10;;
30307;SDS011;17114;52.314;8.910;2023-04-10T10:52:43;11.15;;;8.50;;
30307;SDS011;17114;52.314;8.910;2023-04-10T10:57:50;11.18;;;7.05;;
30307;SDS011;17114;52.314;8.910;2023-04-10T11:00:25;8.80;;;7.53;;
30307;SDS011;17114;52.314;8.910;2023-04-10T11:08:14;9.30;;;7.03;;
30307;SDS011;17114;52.314;8.910;2023-04-10T11:13:34;9.18;;;6.88;;
30307;SDS011;17114;52.314;8.910;2023-04-10T11:19:05;7.88;;;6.53;;
30307;SDS011;17114;52.314;8.910;2023-04-10T11:21:59;8.73;;;6.20;;
30307;SDS011;17114;52.314;8.910;2023-04-10T11:24:24;7.00;;;6.07;;
30307;SDS011;17114;52.314;8.910;2023-04-10T11:26:52;12.55;;;7.90;;
30307;SDS011;17114;52.314;8.910;2023-04-10T11:31:54;10.05;;;7.57;;
30307;SDS011;17114;52.314;8.910;2023-04-10T11:34:25;9.75;;;7.50;;
30307;SDS011;17114;52.314;8.910;2023-04-10T11:37:37;8.32;;;6.40;;
30307;SDS011;17114;52.314;8.910;2023-04-10T11:40:22;9.37;;;5.80;;
30307;SDS011;17114;52.314;8.910;2023-04-10T11:42:50;9.07;;;6.72;;
30307;SDS011;17114;52.314;8.910;2023-04-10T11:45:24;7.70;;;6.20;;
30307;SDS011;17114;52.314;8.910;2023-04-10T11:47:55;8.50;;;5.37;;
30307;SDS011;17114;52.314;8.910;2023-04-10T11:50:23;8.10;;;6.43;;
30307;SDS011;17114;52.314;8.910;2023-04-10T11:52:55;7.55;;;5.93;;
30307;SDS011;17114;52.314;8.910;2023-04-10T11:55:37;11.40;;;6.38;;
30307;SDS011;17114;52.314;8.910;2023-04-10T11:58:19;9.60;;;6.35;;
30307;SDS011;17114;52.314;8.910;2023-04-10T12:00:54;11.15;;;6.40;;
30307;SDS011;17114;52.314;8.910;2023-04-10T12:03:32;8.73;;;6.63;;
30307;SDS011;17114;52.314;8.910;2023-04-10T12:06:11;6.78;;;5.50;;
30307;SDS011;17114;52.314;8.910;2023-04-10T12:08:50;7.95;;;6.40;;
30307;SDS011;17114;52.314;8.910;2023-04-10T12:14:30;8.40;;;6.40;;
30307;SDS011;17114;52.314;8.910;2023-04-10T12:17:10;8.50;;;6.00;;
30307;SDS011;17114;52.314;8.910;2023-04-10T12:19:38;6.57;;;5.20;;
30307;SDS011;17114;52.314;8.910;2023-04-10T12:22:06;7.55;;;5.88;;
30307;SDS011;17114;52.314;8.910;2023-04-10T12:24:44;8.10;;;6.22;;
30307;SDS011;17114;52.314;8.910;2023-04-10T12:27:16;7.40;;;5.82;;
30307;SDS011;17114;52.314;8.910;2023-04-10T12:29:59;8.88;;;6.30;;
30307;SDS011;17114;52.314;8.910;2023-04-10T12:32:32;7.15;;;5.78;;
30307;SDS011;17114;52.314;8.910;2023-04-10T12:35:00;9.15;;;5.82;;
30307;SDS011;17114;52.314;8.910;2023-04-10T12:37:46;8.88;;;6.93;;
30307;SDS011;17114;52.314;8.910;2023-04-10T12:40:14;7.32;;;5.70;;
30307;SDS011;17114;52.314;8.910;2023-04-10T12:42:41;8.25;;;6.13;;
30307;SDS011;17114;52.314;8.910;2023-04-10T12:45:09;8.85;;;6.88;;
30307;SDS011;17114;52.314;8.910;2023-04-10T12:47:43;8.25;;;5.78;;
30307;SDS011;17114;52.314;8.910;2023-04-10T12:50:56;9.02;;;6.90;;
30307;SDS011;17114;52.314;8.910;2023-04-10T12:53:23;8.48;;;6.05;;
30307;SDS011;17114;52.314;8.910;2023-04-10T12:55:55;9.80;;;6.38;;
30307;SDS011;17114;52.314;8.910;2023-04-10T12:58:30;9.07;;;5.93;;
30307;SDS011;17114;52.314;8.910;2023-04-10T13:01:04;8.23;;;6.03;;
30307;SDS011;17114;52.314;8.910;2023-04-10T13:03:32;7.38;;;5.55;;
30307;SDS011;17114;52.314;8.910;2023-04-10T13:06:20;7.40;;;5.38;;
30307;SDS011;17114;52.314;8.910;2023-04-10T13:08:47;7.97;;;5.47;;
30307;SDS011;17114;52.314;8.910;2023-04-10T13:11:14;7.88;;;6.25;;
30307;SDS011;17114;52.314;8.910;2023-04-10T13:13:41;7.65;;;5.57;;
30307;SDS011;17114;52.314;8.910;2023-04-10T13:16:08;9.75;;;5.70;;
30307;SDS011;17114;52.314;8.910;2023-04-10T13:18:38;7.50;;;5.60;;
30307;SDS011;17114;52.314;8.910;2023-04-10T13:21:04;6.22;;;5.47;;
30307;SDS011;17114;52.314;8.910;2023-04-10T13:23:32;7.15;;;5.65;;
30307;SDS011;17114;52.314;8.910;2023-04-10T13:25:59;8.88;;;5.90;;
30307;SDS011;17114;52.314;8.910;2023-04-10T13:28:26;6.60;;;5.55;;
30307;SDS011;17114;52.314;8.910;2023-04-10T13:30:58;6.38;;;5.30;;
30307;SDS011;17114;52.314;8.910;2023-04-10T13:33:25;7.18;;;5.57;;
30307;SDS011;17114;52.314;8.910;2023-04-10T13:35:52;7.40;;;5.00;;
30307;SDS011;17114;52.314;8.910;2023-04-10T13:38:19;6.07;;;4.97;;
30307;SDS011;17114;52.314;8.910;2023-04-10T13:40:47;6.38;;;5.43;;
30307;SDS011;17114;52.314;8.910;2023-04-10T13:43:15;7.50;;;5.18;;
30307;SDS011;17114;52.314;8.910;2023-04-10T13:45:43;6.43;;;5.25;;
30307;SDS011;17114;52.314;8.910;2023-04-10T13:48:11;6.68;;;5.20;;
30307;SDS011;17114;52.314;8.910;2023-04-10T13:50:47;8.00;;;5.68;;
30307;SDS011;17114;52.314;8.910;2023-04-10T13:53:15;7.25;;;5.38;;
30307;SDS011;17114;52.314;8.910;2023-04-10T13:55:42;8.10;;;5.90;;
30307;SDS011;17114;52.314;8.910;2023-04-10T13:58:09;8.98;;;5.95;;
30307;SDS011;17114;52.314;8.910;2023-04-10T14:00:47;6.13;;;4.90;;
30307;SDS011;17114;52.314;8.910;2023-04-10T14:03:14;7.18;;;4.90;;
30307;SDS011;17114;52.314;8.910;2023-04-10T14:05:41;5.55;;;4.95;;
30307;SDS011;17114;52.314;8.910;2023-04-10T14:08:11;7.53;;;5.15;;
30307;SDS011;17114;52.314;8.910;2023-04-10T14:10:41;6.28;;;4.28;;
30307;SDS011;17114;52.314;8.910;2023-04-10T14:13:08;6.25;;;5.07;;
30307;SDS011;17114;52.314;8.910;2023-04-10T14:15:40;6.20;;;5.00;;
30307;SDS011;17114;52.314;8.910;2023-04-10T14:18:07;5.82;;;4.97;;
30307;SDS011;17114;52.314;8.910;2023-04-10T14:20:34;6.05;;;4.80;;
30307;SDS011;17114;52.314;8.910;2023-04-10T14:23:03;12.07;;;4.68;;
30307;SDS011;17114;52.314;8.910;2023-04-10T14:25:31;5.57;;;4.68;;
30307;SDS011;17114;52.314;8.910;2023-04-10T14:27:58;6.60;;;4.45;;
30307;SDS011;17114;52.314;8.910;2023-04-10T14:30:26;9.57;;;4.40;;
30307;SDS011;17114;52.314;8.910;2023-04-10T14:32:56;5.68;;;4.20;;
30307;SDS011;17114;52.314;8.910;2023-04-10T14:35:23;4.53;;;3.60;;
30307;SDS011;17114;52.314;8.910;2023-04-10T14:37:51;5.55;;;4.10;;
30307;SDS011;17114;52.314;8.910;2023-04-10T14:40:18;5.78;;;4.40;;
30307;SDS011;17114;52.314;8.910;2023-04-10T14:42:58;5.32;;;3.58;;
30307;SDS011;17114;52.314;8.910;2023-04-10T14:45:26;4.50;;;3.70;;
30307;SDS011;17114;52.314;8.910;2023-04-10T14:47:56;5.88;;;3.90;;
30307;SDS011;17114;52.314;8.910;2023-04-10T14:50:24;5.35;;;3.60;;
30307;SDS011;17114;52.314;8.910;2023-04-10T14:52:51;4.68;;;3.45;;
30307;SDS011;17114;52.314;8.910;2023-04-10T14:55:48;6.03;;;3.80;;
30307;SDS011;17114;52.314;8.910;2023-04-10T14:58:21;4.72;;;3.40;;
30307;SDS011;17114;52.314;8.910;2023-04-10T15:01:54;4.15;;;3.45;;
30307;SDS011;17114;52.314;8.910;2023-04-10T15:04:22;4.05;;;3.38;;
30307;SDS011;17114;52.314;8.910;2023-04-10T15:06:49;3.70;;;3.10;;
30307;SDS011;17114;52.314;8.910;2023-04-10T15:11:51;4.35;;;3.22;;
30307;SDS011;17114;52.314;8.910;2023-04-10T15:14:20;4.32;;;3.30;;
30307;SDS011;17114;52.314;8.910;2023-04-10T15:16:50;4.30;;;3.22;;
30307;SDS011;17114;52.314;8.910;2023-04-10T15:22:08;3.60;;;3.08;;
30307;SDS011;17114;52.314;8.910;2023-04-10T15:24:35;3.45;;;2.80;;
30307;SDS011;17114;52.314;8.910;2023-04-10T15:27:15;3.67;;;2.88;;
30307;SDS011;17114;52.314;8.910;2023-04-10T15:29:43;5.55;;;3.40;;
30307;SDS011;17114;52.314;8.910;2023-04-10T15:32:13;3.45;;;2.85;;
30307;SDS011;17114;52.314;8.910;2023-04-10T15:34:40;3.78;;;3.00;;
30307;SDS011;17114;52.314;8.910;2023-04-10T15:37:13;4.28;;;3.10;;
30307;SDS011;17114;52.314;8.910;2023-04-10T15:39:40;3.78;;;2.95;;
30307;SDS011;17114;52.314;8.910;2023-04-10T15:42:08;3.90;;;3.08;;
30307;SDS011;17114;52.314;8.910;2023-04-10T15:44:48;4.38;;;3.30;;